createdAt,value
2022-11-05T11:56:06.933Z,97343.56
2022-11-05T11:58:54.684Z,97352.41
2022-11-05T12:01:52.526Z,97340.66
2022-11-05T12:04:59.598Z,97352.59
2022-11-05T12:07:58.171Z,97345.53
2022-11-05T12:11:22.247Z,97344.34
2022-11-05T12:14:19.498Z,97357.16
2022-11-05T12:17:26.129Z,97352.00
2022-11-05T12:20:14.482Z,97349.28
2022-11-05T12:23:12.598Z,97346.28
2022-11-05T12:26:17.222Z,97348.22
2022-11-05T12:29:35.984Z,97350.75
2022-11-05T12:32:30.810Z,97356.03
2022-11-05T12:35:48.993Z,97363.63
2022-11-05T12:39:19.327Z,97363.94
2022-11-05T12:42:26.862Z,97367.00
2022-11-05T12:45:43.854Z,97377.16
2022-11-05T12:48:47.550Z,97372.91
2022-11-05T12:51:42.183Z,97370.81
2022-11-05T12:54:30.516Z,97367.09
2022-11-05T12:57:17.916Z,97373.47
2022-11-05T13:00:26.568Z,97375.19
2022-11-05T13:03:11.811Z,97379.94
2022-11-05T13:06:06.258Z,97383.16
2022-11-05T13:09:00.564Z,97377.59
2022-11-05T13:12:12.132Z,97391.63
2022-11-05T13:15:15.405Z,97392.03
2022-11-05T13:18:14.154Z,97395.59
2022-11-05T13:21:05.565Z,97394.03
2022-11-05T13:24:06.449Z,97389.50
2022-11-05T13:26:58.076Z,97396.66
2022-11-05T13:29:53.414Z,97395.03
2022-11-05T13:32:42.035Z,97395.03
2022-11-05T13:35:36.650Z,97404.84
2022-11-05T13:38:45.189Z,97398.75
2022-11-05T13:41:40.696Z,97399.97
2022-11-05T13:45:12.859Z,97403.31
2022-11-05T13:48:25.970Z,97407.72
2022-11-05T13:51:47.374Z,97411.75
2022-11-05T13:55:06.930Z,97420.50
2022-11-05T13:58:01.561Z,97427.72
2022-11-05T14:01:39.335Z,97425.59
2022-11-05T14:04:31.073Z,97425.47
2022-11-05T14:07:22.036Z,97422.44
2022-11-05T14:10:25.923Z,97431.63
2022-11-05T14:13:25.461Z,97427.59
2022-11-05T14:16:23.982Z,97429.88
2022-11-05T14:19:29.782Z,97423.97
2022-11-05T14:22:33.380Z,97430.53
2022-11-05T14:25:18.991Z,97422.44
2022-11-05T14:28:38.072Z,97428.16
2022-11-05T14:31:54.270Z,97420.69
2022-11-05T14:34:45.176Z,97424.81
2022-11-05T14:37:34.362Z,97425.22
2022-11-05T14:40:19.975Z,97425.09
2022-11-05T14:43:05.768Z,97422.66
2022-11-05T14:46:08.797Z,97421.25
2022-11-05T14:49:08.175Z,97420.66
2022-11-05T14:51:58.591Z,97425.38
2022-11-05T14:54:46.986Z,97423.16
2022-11-05T14:57:55.406Z,97421.78
2022-11-05T15:00:42.631Z,97428.88
2022-11-05T15:04:02.457Z,97426.69
2022-11-05T15:07:03.084Z,97427.34
2022-11-05T15:09:54.537Z,97433.88
2022-11-05T15:12:52.189Z,97441.22
2022-11-05T15:15:44.567Z,97444.28
2022-11-05T15:18:35.465Z,97439.44
2022-11-05T15:21:21.288Z,97444.56
2022-11-05T15:24:09.771Z,97449.66
2022-11-05T15:27:12.850Z,97446.41
2022-11-05T15:30:05.436Z,97449.47
2022-11-05T15:32:51.788Z,97445.66
2022-11-05T15:35:40.476Z,97446.28
2022-11-05T15:38:30.810Z,97451.19
2022-11-05T15:41:21.062Z,97448.19
2022-11-05T15:44:06.499Z,97451.25
2022-11-05T15:47:12.789Z,97452.91
2022-11-05T15:50:02.089Z,97448.47
2022-11-05T15:52:54.586Z,97453.81
2022-11-05T15:55:55.068Z,97455.47
2022-11-05T15:58:53.490Z,97452.28
2022-11-05T16:01:50.114Z,97461.25
2022-11-05T16:04:36.137Z,97462.53
2022-11-05T16:07:21.922Z,97465.59
2022-11-05T16:10:16.953Z,97464.22
2022-11-05T16:13:21.775Z,97472.78
2022-11-05T16:16:25.419Z,97480.13
2022-11-05T16:19:40.524Z,97482.19
2022-11-05T16:22:43.929Z,97489.13
2022-11-05T16:25:37.119Z,97486.09
2022-11-05T16:28:25.983Z,97480.84
2022-11-05T16:31:11.471Z,97486.31
2022-11-05T16:33:58.391Z,97487.13
2022-11-05T16:36:43.908Z,97496.63
2022-11-05T16:39:29.472Z,97498.03
2022-11-05T16:42:39.318Z,97503.88
2022-11-05T16:45:25.438Z,97513.22
2022-11-05T16:48:15.575Z,97517.44
2022-11-05T16:51:00.901Z,97521.03
2022-11-05T16:53:48.531Z,97523.25
2022-11-05T16:56:34.170Z,97514.88
2022-11-05T16:59:19.546Z,97517.66
2022-11-05T17:02:05.518Z,97520.00
2022-11-05T17:04:51.515Z,97522.78
2022-11-05T17:07:41.164Z,97524.00
2022-11-05T17:10:27.616Z,97528.41
2022-11-05T17:13:17.497Z,97530.94
2022-11-05T17:16:02.950Z,97534.13
2022-11-05T17:18:48.484Z,97535.00
2022-11-05T17:21:34.310Z,97546.69
2022-11-05T17:24:19.702Z,97539.56
2022-11-05T17:27:05.242Z,97553.00
2022-11-05T17:29:50.324Z,97548.69
2022-11-05T17:32:35.760Z,97555.31
2022-11-05T17:35:21.679Z,97560.13
2022-11-05T17:38:07.285Z,97564.94
2022-11-05T17:40:53.476Z,97563.44
2022-11-05T17:43:38.888Z,97572.44
2022-11-05T17:46:24.872Z,97565.91
2022-11-05T17:49:10.676Z,97565.84
2022-11-05T17:51:55.923Z,97565.34
2022-11-05T17:54:41.411Z,97571.13
2022-11-05T17:57:27.403Z,97570.88
2022-11-05T18:00:16.274Z,97571.22
2022-11-05T18:03:02.146Z,97581.47
2022-11-05T18:05:48.407Z,97594.78
2022-11-05T18:08:33.765Z,97594.34
2022-11-05T18:11:19.425Z,97594.69
2022-11-05T18:14:05.269Z,97603.28
2022-11-05T18:16:51.479Z,97604.66
2022-11-05T18:19:38.773Z,97609.00
2022-11-05T18:22:24.179Z,97603.47
2022-11-05T18:25:11.929Z,97609.00
2022-11-05T18:27:57.909Z,97606.25
2022-11-05T18:30:43.284Z,97606.16
2022-11-05T18:33:28.806Z,97610.50
2022-11-05T18:36:23.340Z,97611.81
2022-11-05T18:39:09.027Z,97609.75
2022-11-05T18:41:54.360Z,97607.47
2022-11-05T18:44:40.132Z,97615.06
2022-11-05T18:47:25.926Z,97610.16
2022-11-05T18:50:11.687Z,97616.94
2022-11-05T18:52:57.890Z,97622.00
2022-11-05T18:55:43.555Z,97622.34
2022-11-05T18:58:29.015Z,97618.81
2022-11-05T19:01:20.707Z,97623.75
2022-11-05T19:04:06.396Z,97626.09
2022-11-05T19:06:51.906Z,97630.75
2022-11-05T19:09:38.639Z,97633.41
2022-11-05T19:12:26.385Z,97641.47
2022-11-05T19:15:11.604Z,97646.22
2022-11-05T19:17:57.471Z,97648.84
2022-11-05T19:20:42.957Z,97643.13
2022-11-05T19:23:28.771Z,97644.31
2022-11-05T19:26:28.337Z,97646.78
2022-11-05T19:29:14.636Z,97645.50
2022-11-05T19:32:00.131Z,97654.34
2022-11-05T19:34:46.451Z,97649.91
2022-11-05T19:37:31.930Z,97651.91
2022-11-05T19:40:17.376Z,97652.88
2022-11-05T19:43:02.853Z,97652.22
2022-11-05T19:45:48.346Z,97661.44
2022-11-05T19:48:34.163Z,97661.94
2022-11-05T19:51:23.467Z,97663.28
2022-11-05T19:54:09.315Z,97661.97
2022-11-05T19:56:54.583Z,97664.09
2022-11-05T19:59:40.062Z,97666.09
2022-11-05T20:02:25.668Z,97670.66
2022-11-05T20:05:13.540Z,97669.38
2022-11-05T20:07:59.613Z,97664.81
2022-11-05T20:10:44.943Z,97672.03
2022-11-05T20:13:31.059Z,97673.97
2022-11-05T20:16:19.764Z,97665.16
2022-11-05T20:19:07.279Z,97663.88
2022-11-05T20:21:53.226Z,97669.78
2022-11-05T20:24:39.057Z,97662.59
2022-11-05T20:27:24.473Z,97669.47
2022-11-05T20:30:10.513Z,97663.59
2022-11-05T20:32:57.558Z,97668.50
2022-11-05T20:35:43.126Z,97667.22
2022-11-05T20:38:28.618Z,97672.91
2022-11-05T20:41:13.777Z,97667.66
2022-11-05T20:43:59.787Z,97675.38
2022-11-05T20:46:45.910Z,97675.19
2022-11-05T20:49:31.520Z,97674.22
2022-11-05T20:52:17.370Z,97682.25
2022-11-05T20:55:04.417Z,97677.69
2022-11-05T20:57:49.539Z,97671.97
2022-11-05T21:00:35.263Z,97675.38
2022-11-05T21:03:21.696Z,97669.34
2022-11-05T21:06:07.735Z,97676.34
2022-11-05T21:08:54.704Z,97673.91
2022-11-05T21:11:59.173Z,97679.16
2022-11-05T21:14:44.950Z,97681.94
2022-11-05T21:17:30.415Z,97682.25
2022-11-05T21:20:16.270Z,97677.03
2022-11-05T21:23:02.054Z,97671.00
2022-11-05T21:25:48.160Z,97677.38
2022-11-05T21:28:34.324Z,97675.72
2022-11-05T21:31:19.744Z,97679.31
2022-11-05T21:34:05.007Z,97672.47
2022-11-05T21:36:51.579Z,97684.88
2022-11-05T21:39:37.461Z,97685.69
2022-11-05T21:42:22.581Z,97696.97
2022-11-05T21:45:08.351Z,97685.88
2022-11-05T21:47:54.153Z,97686.69
2022-11-05T21:50:58.348Z,97678.50
2022-11-05T21:54:18.837Z,97672.63
2022-11-05T21:57:22.896Z,97671.47
2022-11-05T22:00:10.763Z,97672.28
2022-11-05T22:02:56.082Z,97667.22
2022-11-05T22:05:41.507Z,97669.50
2022-11-05T22:08:27.304Z,97666.72
2022-11-05T22:11:12.688Z,97672.44
2022-11-05T22:13:58.364Z,97674.06
2022-11-05T22:16:44.051Z,97679.16
2022-11-05T22:19:30.773Z,97674.41
2022-11-05T22:22:16.859Z,97676.50
2022-11-05T22:25:02.507Z,97681.06
2022-11-05T22:27:47.911Z,97678.91
2022-11-05T22:30:34.760Z,97680.88
2022-11-05T22:33:20.307Z,97691.66
2022-11-05T22:36:06.136Z,97687.72
2022-11-05T22:38:51.545Z,97684.44
2022-11-05T22:41:36.859Z,97694.41
2022-11-05T22:44:22.391Z,97687.66
2022-11-05T22:47:08.144Z,97693.84
2022-11-05T22:49:53.444Z,97691.56
2022-11-05T22:52:38.845Z,97693.50
2022-11-05T22:55:24.296Z,97693.63
2022-11-05T22:58:09.885Z,97689.53
2022-11-05T23:00:55.743Z,97694.06
2022-11-05T23:03:43.563Z,97682.25
2022-11-05T23:06:50.635Z,97695.66
2022-11-05T23:09:54.698Z,97691.72
2022-11-05T23:12:42.531Z,97682.50
2022-11-05T23:15:46.826Z,97679.56
2022-11-05T23:18:50.665Z,97675.59
2022-11-05T23:21:54.672Z,97679.00
2022-11-05T23:24:40.239Z,97672.59
2022-11-05T23:27:29.614Z,97674.72
2022-11-05T23:30:21.092Z,97679.63
2022-11-05T23:33:06.798Z,97676.63
2022-11-05T23:36:10.801Z,97684.97
2022-11-05T23:38:56.037Z,97679.38
2022-11-05T23:42:00.080Z,97676.78
2022-11-05T23:45:04.481Z,97682.00
2022-11-05T23:48:08.609Z,97679.56
2022-11-05T23:51:07.344Z,97685.16
2022-11-05T23:53:52.487Z,97686.31
2022-11-05T23:56:38.519Z,97688.09
2022-11-05T23:59:24.145Z,97687.47
